Time;durP1;ratioP1;P1;durP2;ratioP2;P2;SDS_P1;SDS_P2;PMS_P1;PMS_P2;Temp;Humidity;BMP_temperature;BMP_pressure;BME280_temperature;BME280_humidity;BME280_pressure;Samples;Min_cycle;Max_cycle;Signal;HPM_P1;HPM_P2
2022/03/22 00:01:21;;;;;;;;;29.25;25.50;;;;;16.77;68.02;102439.34;4993222;28;45381;-74
2022/03/22 00:03:47;;;;;;;;;29.00;26.25;;;;;16.78;67.90;102451.59;4993628;28;45399;-74
2022/03/22 00:06:14;;;;;;;;;25.50;25.00;;;;;16.70;68.54;102443.41;4992878;28;45995;-73
2022/03/22 00:08:41;;;;;;;;;29.75;26.25;;;;;16.72;68.37;102460.06;4993170;28;45320;-72
2022/03/22 00:11:07;;;;;;;;;25.25;24.50;;;;;16.68;68.39;102452.91;4975311;28;45410;-73
2022/03/22 00:13:33;;;;;;;;;29.75;25.50;;;;;16.63;68.62;102454.41;4993443;28;45424;-72
2022/03/22 00:15:59;;;;;;;;;22.50;20.75;;;;;16.58;68.88;102451.56;4993030;28;45492;-73
2022/03/22 00:18:24;;;;;;;;;23.75;23.75;;;;;16.62;68.75;102466.59;4993332;28;45846;-71
2022/03/22 00:20:50;;;;;;;;;29.50;25.50;;;;;16.60;69.06;102465.59;4992973;28;45208;-72
2022/03/22 00:23:19;;;;;;;;;30.00;28.00;;;;;16.58;68.89;102459.41;4992810;28;45493;-73
2022/03/22 00:25:45;;;;;;;;;20.50;19.50;;;;;16.58;68.85;102459.41;4992621;28;45464;-71
2022/03/22 00:28:12;;;;;;;;;22.50;22.50;;;;;16.56;69.18;102461.97;4992430;28;45445;-72
2022/03/22 00:30:38;;;;;;;;;31.50;27.25;;;;;16.54;69.17;102454.88;4992921;28;45264;-72
2022/03/22 00:33:06;;;;;;;;;28.50;25.50;;;;;16.51;69.38;102465.19;4992847;28;45353;-73
2022/03/22 00:35:35;;;;;;;;;32.75;28.25;;;;;16.50;69.73;102466.91;4975399;28;45286;-73
2022/03/22 00:38:03;;;;;;;;;26.50;26.50;;;;;16.38;69.27;102451.53;4992433;28;45455;-73
2022/03/22 00:40:30;;;;;;;;;38.25;31.25;;;;;16.44;69.62;102460.50;4992798;28;45327;-72
2022/03/22 00:42:56;;;;;;;;;31.00;27.75;;;;;16.42;69.88;102456.91;4993374;27;45515;-74
2022/03/22 00:45:24;;;;;;;;;32.25;27.00;;;;;16.34;69.80;102452.22;4992292;28;46183;-73
2022/03/22 00:47:52;;;;;;;;;29.50;25.75;;;;;16.33;70.02;102459.97;4995071;28;46028;-73
2022/03/22 00:50:22;;;;;;;;;28.50;26.50;;;;;16.29;69.77;102456.31;4995335;28;45310;-72
2022/03/22 00:52:48;;;;;;;;;33.00;28.50;;;;;16.27;69.69;102463.19;4995909;28;45268;-72
2022/03/22 00:55:14;;;;;;;;;29.00;29.00;;;;;16.25;70.05;102464.84;4995295;27;46221;-73
2022/03/22 00:57:41;;;;;;;;;33.00;29.25;;;;;16.22;70.14;102467.31;4995433;28;45988;-72
2022/03/22 01:00:10;;;;;;;;;29.75;25.25;;;;;16.19;69.90;102462.84;4995402;27;45411;-72
2022/03/22 01:02:38;;;;;;;;;25.50;23.25;;;;;16.19;70.23;102462.84;4995587;27;45193;-72
2022/03/22 01:05:11;;;;;;;;;26.75;25.25;;;;;16.21;70.24;102465.53;4977434;28;45467;-72
2022/03/22 01:07:38;;;;;;;;;30.50;26.00;;;;;16.14;69.96;102456.47;4995436;28;45817;-72
2022/03/22 01:10:09;;;;;;;;;28.50;26.50;;;;;16.21;70.00;102469.00;4977820;28;45222;-72
2022/03/22 01:12:37;;;;;;;;;33.50;29.75;;;;;16.23;69.42;102470.00;4995529;28;45403;-72
2022/03/22 01:15:05;;;;;;;;;27.00;25.25;;;;;16.26;69.43;102471.84;4994928;27;46585;-72
2022/03/22 01:17:31;;;;;;;;;24.00;21.25;;;;;16.24;68.91;102461.34;4995178;28;45317;-73
2022/03/22 01:19:57;;;;;;;;;27.50;25.75;;;;;16.23;68.59;102459.53;4995835;28;45403;-73
2022/03/22 01:22:25;;;;;;;;;29.25;24.25;;;;;16.25;68.19;102460.50;4977719;28;45252;-72
2022/03/22 01:24:52;;;;;;;;;28.50;25.75;;;;;16.25;68.35;102457.03;4995122;28;45391;-72
2022/03/22 01:27:21;;;;;;;;;24.50;22.25;;;;;16.21;67.82;102450.72;4994884;28;45839;-73
2022/03/22 01:29:48;;;;;;;;;22.00;22.00;;;;;16.24;67.82;102456.09;4995235;28;45499;-73
2022/03/22 01:32:14;;;;;;;;;24.25;21.25;;;;;16.22;67.48;102456.88;4995278;28;45594;-72
2022/03/22 01:34:39;;;;;;;;;26.25;24.00;;;;;16.20;67.35;102448.03;4994972;28;45995;-71
2022/03/22 01:37:05;;;;;;;;;23.75;21.75;;;;;16.25;67.20;102467.47;4994900;28;45391;-72
2022/03/22 01:39:31;;;;;;;;;24.75;24.00;;;;;16.25;66.82;102459.63;4995224;28;45193;-72
2022/03/22 01:41:58;;;;;;;;;21.50;20.25;;;;;16.25;66.44;102463.13;4995606;28;45314;-72
2022/03/22 01:44:25;;;;;;;;;26.00;23.75;;;;;16.25;66.80;102454.41;4994733;28;47374;-71
2022/03/22 01:46:51;;;;;;;;;19.75;19.25;;;;;16.23;66.38;102462.16;4994854;28;45335;-73
2022/03/22 01:49:19;;;;;;;;;23.50;21.50;;;;;16.21;66.50;102455.94;4994897;27;45451;-71
2022/03/22 01:51:48;;;;;;;;;25.00;23.50;;;;;16.21;65.58;102448.09;4995152;28;45664;-71
2022/03/22 01:54:15;;;;;;;;;22.00;18.75;;;;;16.21;65.38;102448.09;4994622;28;46178;-71
2022/03/22 01:56:41;;;;;;;;;22.00;22.00;;;;;16.18;65.06;102436.63;4994969;28;45434;-73
2022/03/22 01:59:07;;;;;;;;;23.00;20.25;;;;;16.22;64.01;102443.78;4994587;28;45323;-72
2022/03/22 02:07:04;;;;;;;;;26.00;24.00;;;;;16.17;63.98;102438.34;4994511;28;45311;-73
2022/03/22 02:09:30;;;;;;;;;24.50;23.00;;;;;16.12;64.21;102434.59;4994706;28;45293;-73
2022/03/22 02:11:55;;;;;;;;;25.50;25.00;;;;;16.13;65.19;102441.63;4995246;28;45216;-73
2022/03/22 02:14:21;;;;;;;;;21.75;20.00;;;;;16.09;65.48;102447.50;4993079;28;46240;-73
2022/03/22 02:16:46;;;;;;;;;28.00;24.00;;;;;15.96;65.99;102430.34;4994646;27;45287;-72
2022/03/22 02:19:14;;;;;;;;;25.00;23.00;;;;;15.97;66.32;102445.22;4994350;28;45266;-72
2022/03/22 02:21:41;;;;;;;;;24.50;24.25;;;;;15.91;66.69;102444.94;4994953;28;45435;-74
2022/03/22 02:24:07;;;;;;;;;24.75;24.25;;;;;15.82;67.08;102434.00;4994109;28;45455;-74
2022/03/22 02:26:33;;;;;;;;;25.50;22.25;;;;;15.75;67.34;102435.41;4994348;28;45351;-73
2022/03/22 02:28:59;;;;;;;;;26.25;24.25;;;;;15.74;67.67;102441.44;4994766;28;45390;-72
2022/03/22 02:31:29;;;;;;;;;26.25;25.00;;;;;15.68;67.63;102449.88;4995096;28;45399;-73
2022/03/22 02:33:55;;;;;;;;;25.50;24.75;;;;;15.66;68.07;102448.00;4994924;28;45590;-73
2022/03/22 02:36:21;;;;;;;;;27.00;24.50;;;;;15.61;68.08;102448.66;4994182;28;45936;-72
2022/03/22 02:38:48;;;;;;;;;28.50;26.25;;;;;15.60;68.41;102448.59;4994436;28;45260;-73
2022/03/22 02:41:26;;;;;;;;;28.50;22.75;;;;;15.59;68.13;102452.03;4994634;28;45350;-71
2022/03/22 02:43:53;;;;;;;;;28.50;23.50;;;;;15.55;67.65;102447.44;4994231;28;46070;-72
2022/03/22 02:46:20;;;;;;;;;26.50;21.50;;;;;15.52;66.18;102449.91;4994018;28;45398;-72
2022/03/22 02:48:46;;;;;;;;;21.00;19.75;;;;;15.48;64.51;102451.47;4993055;28;45402;-72
2022/03/22 02:51:12;;;;;;;;;20.50;15.25;;;;;15.44;62.74;102437.34;4994282;28;45505;-73
2022/03/22 02:53:39;;;;;;;;;21.00;18.50;;;;;15.51;61.82;102443.78;4994118;28;46477;-76
2022/03/22 02:56:05;;;;;;;;;21.50;19.25;;;;;15.54;61.59;102446.56;4993726;28;45414;-75
2022/03/22 02:58:31;;;;;;;;;18.25;18.00;;;;;15.57;60.60;102451.03;4994198;28;45291;-72
2022/03/22 03:00:56;;;;;;;;;23.25;22.00;;;;;15.57;61.33;102456.25;4994918;28;45182;-74
2022/03/22 03:03:22;;;;;;;;;24.25;21.75;;;;;15.52;63.67;102461.25;4993627;27;45307;-73
2022/03/22 03:05:50;;;;;;;;;24.75;23.75;;;;;15.39;65.67;102458.81;4993928;28;45356;-71
2022/03/22 03:08:16;;;;;;;;;30.75;25.75;;;;;15.27;66.53;102448.66;4993835;27;45375;-73
2022/03/22 03:10:43;;;;;;;;;27.75;23.00;;;;;15.16;67.54;102464.66;4993447;28;45307;-71
2022/03/22 03:13:08;;;;;;;;;28.25;26.00;;;;;15.02;68.06;102455.19;4993639;28;45880;-73
2022/03/22 03:15:34;;;;;;;;;30.50;28.25;;;;;14.99;67.83;102465.44;4993823;28;45424;-74
2022/03/22 03:18:00;;;;;;;;;28.50;26.00;;;;;14.85;68.94;102449.06;4993805;28;45459;-74
2022/03/22 03:20:28;;;;;;;;;30.75;28.25;;;;;14.88;68.65;102461.38;4994391;27;45236;-77
2022/03/22 03:22:54;;;;;;;;;33.25;28.25;;;;;14.91;68.22;102469.38;4976555;28;45584;-74
2022/03/22 03:25:20;;;;;;;;;31.50;27.75;;;;;14.84;68.59;102463.84;4993555;28;45266;-73
2022/03/22 03:27:47;;;;;;;;;30.75;28.75;;;;;14.81;68.41;102468.88;4976003;28;45569;-75
2022/03/22 03:30:13;;;;;;;;;30.50;24.25;;;;;14.72;68.29;102468.38;4993756;28;45434;-73
2022/03/22 03:32:38;;;;;;;;;28.25;26.75;;;;;14.75;68.54;102472.84;4993512;27;45272;-74
2022/03/22 03:35:05;;;;;;;;;32.50;26.50;;;;;14.74;68.10;102474.56;4993387;28;45264;-73
2022/03/22 03:37:35;;;;;;;;;34.50;27.75;;;;;14.68;68.67;102471.63;4993719;28;45290;-75
2022/03/22 03:40:03;;;;;;;;;30.25;27.00;;;;;14.71;68.02;102466.59;4993525;28;45441;-74
2022/03/22 03:42:28;;;;;;;;;31.75;28.25;;;;;14.70;67.93;102473.50;4993742;28;46111;-74
2022/03/22 03:47:38;;;;;;;;;33.00;27.75;;;;;14.67;67.40;102454.19;4993785;28;45384;-77
2022/03/22 03:50:06;;;;;;;;;28.50;28.00;;;;;14.70;67.16;102470.88;4993620;28;45514;-74
2022/03/22 03:52:34;;;;;;;;;24.00;23.75;;;;;14.71;67.49;102471.81;4993300;28;45309;-74
2022/03/22 03:55:01;;;;;;;;;30.25;27.00;;;;;14.69;67.52;102468.22;4993082;28;45298;-71
2022/03/22 03:57:27;;;;;;;;;24.25;24.00;;;;;14.66;67.06;102475.81;4993706;28;45458;-72
2022/03/22 03:59:54;;;;;;;;;28.25;25.00;;;;;14.71;66.89;102477.00;4993684;28;45331;-72
2022/03/22 04:02:21;;;;;;;;;30.25;26.75;;;;;14.70;66.52;102475.22;4992833;28;45470;-72
2022/03/22 04:04:51;;;;;;;;;31.00;23.75;;;;;14.70;66.61;102477.81;4993189;28;45425;-72
2022/03/22 04:07:18;;;;;;;;;27.50;25.75;;;;;14.65;65.98;102474.03;4992944;28;45461;-72
2022/03/22 04:09:44;;;;;;;;;26.75;24.25;;;;;14.68;66.95;102482.97;4993408;28;45387;-72
2022/03/22 04:12:11;;;;;;;;;27.00;23.00;;;;;14.68;66.75;102479.44;4992686;28;45371;-72
2022/03/22 04:14:38;;;;;;;;;29.50;25.00;;;;;14.73;67.49;102487.50;4992933;27;45320;-72
2022/03/22 04:17:04;;;;;;;;;24.25;21.75;;;;;14.76;67.44;102493.78;4993034;27;45873;-72
2022/03/22 04:19:30;;;;;;;;;24.50;21.75;;;;;14.80;66.35;102497.47;4975797;28;45317;-71
2022/03/22 04:21:56;;;;;;;;;27.75;25.50;;;;;14.74;66.08;102482.38;4994354;27;45963;-72
2022/03/22 04:24:22;;;;;;;;;23.75;22.75;;;;;14.78;65.47;102486.97;4995594;28;45373;-71
2022/03/22 04:26:48;;;;;;;;;26.00;25.00;;;;;14.79;65.81;102493.97;4996025;28;45490;-72
2022/03/22 04:34:45;;;;;;;;;25.50;22.75;;;;;14.82;63.96;102493.22;4995619;28;45452;-72
2022/03/22 04:37:13;;;;;;;;;23.50;21.75;;;;;14.82;64.08;102494.16;4995599;27;45279;-73
2022/03/22 04:39:40;;;;;;;;;22.75;20.00;;;;;14.84;65.06;102495.13;4999229;28;45643;-72
2022/03/22 04:42:06;;;;;;;;;26.50;24.75;;;;;14.90;64.65;102491.03;4995171;28;45448;-72
2022/03/22 04:44:33;;;;;;;;;28.75;26.00;;;;;14.94;64.41;102498.22;4995386;27;45463;-72
2022/03/22 04:46:59;;;;;;;;;26.50;22.50;;;;;14.93;64.08;102483.41;4995869;27;45411;-71
2022/03/22 04:49:26;;;;;;;;;24.25;23.25;;;;;14.94;63.82;102485.19;4996014;28;45337;-71
2022/03/22 04:57:22;;;;;;;;;27.00;25.50;;;;;14.95;62.75;102497.41;5013397;28;45258;-72
2022/03/22 04:59:48;;;;;;;;;30.00;25.25;;;;;14.92;61.51;102495.53;5002886;28;45244;-71
2022/03/22 05:02:15;;;;;;;;;23.25;21.50;;;;;14.86;60.92;102496.09;4995187;28;45779;-71
2022/03/22 05:04:41;;;;;;;;;24.25;22.75;;;;;14.90;61.03;102504.97;4994982;27;46064;-72
2022/03/22 05:07:06;;;;;;;;;24.00;20.50;;;;;14.88;60.89;102510.91;4995445;28;45349;-72
2022/03/22 05:09:32;;;;;;;;;24.50;23.00;;;;;14.90;59.79;102520.59;5018359;27;46445;-72
2022/03/22 05:12:00;;;;;;;;;26.00;23.50;;;;;14.84;59.68;102512.47;5076745;27;46070;-72
2022/03/22 05:14:26;;;;;;;;;24.00;23.25;;;;;14.79;59.81;102512.22;5099443;27;45291;-72
2022/03/22 05:16:52;;;;;;;;;19.25;19.25;;;;;14.82;59.62;102521.91;5005772;27;45405;-72
2022/03/22 05:19:18;;;;;;;;;20.25;18.25;;;;;14.74;58.87;102521.47;4995209;28;45480;-71
2022/03/22 05:21:45;;;;;;;;;24.25;22.25;;;;;14.70;59.06;102524.75;5039826;27;45489;-72
2022/03/22 05:24:11;;;;;;;;;23.00;21.25;;;;;14.60;59.12;102520.69;5098744;27;45714;-71
2022/03/22 05:26:37;;;;;;;;;23.25;20.75;;;;;14.60;59.24;102530.22;5098953;27;45472;-72
2022/03/22 05:29:04;;;;;;;;;19.75;18.75;;;;;14.59;59.57;102536.25;5098997;27;45471;-72
2022/03/22 05:31:31;;;;;;;;;20.25;20.25;;;;;14.57;59.48;102535.25;5055911;27;45572;-72
2022/03/22 05:33:58;;;;;;;;;21.50;19.25;;;;;14.55;59.78;102538.69;5098642;27;45744;-75
2022/03/22 05:36:24;;;;;;;;;21.50;20.25;;;;;14.50;59.41;102534.03;5090488;27;45363;-73
2022/03/22 05:38:50;;;;;;;;;26.25;25.25;;;;;14.44;59.84;102529.34;5088972;27;45668;-73
2022/03/22 05:41:16;;;;;;;;;21.75;21.00;;;;;14.50;60.20;102531.41;5000350;27;45997;-76
2022/03/22 05:43:42;;;;;;;;;22.50;21.00;;;;;14.55;59.42;102536.06;4997950;28;45580;-73
2022/03/22 05:46:09;;;;;;;;;25.75;23.00;;;;;14.45;59.11;102525.94;4996006;27;45447;-73
2022/03/22 05:48:38;;;;;;;;;25.50;21.25;;;;;14.42;59.38;102537.91;5006071;27;45605;-74
2022/03/22 05:51:04;;;;;;;;;23.50;21.25;;;;;14.43;60.58;102544.91;4994206;28;46252;-71
2022/03/22 05:53:30;;;;;;;;;25.00;22.75;;;;;14.35;59.86;102536.66;4986838;28;45525;-72
2022/03/22 05:55:56;;;;;;;;;26.00;23.25;;;;;14.35;59.90;102548.00;4995111;28;45344;-73
2022/03/22 05:58:21;;;;;;;;;23.25;19.25;;;;;14.38;60.47;102555.06;4994790;28;45374;-73
2022/03/22 06:00:47;;;;;;;;;26.00;20.50;;;;;14.37;59.87;102561.09;4994190;28;46066;-73
2022/03/22 06:03:13;;;;;;;;;24.75;22.50;;;;;14.31;59.63;102555.50;4994008;28;46696;-72
2022/03/22 06:05:39;;;;;;;;;22.25;22.25;;;;;14.29;59.69;102563.25;4995004;28;45368;-72
2022/03/22 06:08:05;;;;;;;;;26.25;24.25;;;;;14.26;60.52;102567.41;4994779;28;45359;-72
2022/03/22 06:10:31;;;;;;;;;24.50;21.75;;;;;14.14;60.45;102558.06;4994513;28;45407;-72
2022/03/22 06:12:57;;;;;;;;;25.50;22.50;;;;;14.21;60.21;102569.75;4994038;27;45331;-72
2022/03/22 06:15:29;;;;;;;;;29.25;23.50;;;;;14.19;60.84;102571.34;4995004;27;45390;-74
2022/03/22 06:18:06;;;;;;;;;28.25;23.75;;;;;14.18;60.48;102582.56;4994260;28;45663;-71
2022/03/22 06:20:37;;;;;;;;;25.50;23.25;;;;;14.12;60.60;102585.72;5000891;28;45480;-73
2022/03/22 06:23:07;;;;;;;;;25.50;22.00;;;;;14.11;61.01;102588.25;4997710;28;45377;-78
2022/03/22 06:25:35;;;;;;;;;24.75;22.75;;;;;14.06;60.83;102581.03;4995167;28;45275;-79
2022/03/22 06:28:01;;;;;;;;;24.25;23.75;;;;;14.03;60.66;102582.56;5005966;28;45525;-82
2022/03/22 06:30:27;;;;;;;;;23.00;22.75;;;;;13.91;61.18;102578.44;4996106;28;47199;-77
2022/03/22 06:32:58;;;;;;;;;21.00;20.50;;;;;13.89;61.25;102577.44;5001903;27;45358;-74
2022/03/22 06:35:29;;;;;;;;;28.50;27.50;;;;;13.86;61.24;102576.38;4977400;28;45304;-82
2022/03/22 06:37:55;;;;;;;;;25.00;23.25;;;;;13.85;61.98;102590.19;4996706;28;45358;-76
2022/03/22 06:40:23;;;;;;;;;25.50;22.25;;;;;13.81;62.68;102583.91;4994110;28;45457;-77
2022/03/22 06:42:50;;;;;;;;;23.00;22.50;;;;;13.68;62.59;102573.53;4976272;28;45731;-76
2022/03/22 06:45:16;;;;;;;;;36.00;28.50;;;;;13.80;63.24;102592.50;4998149;28;45366;-73
2022/03/22 06:47:43;;;;;;;;;27.00;24.50;;;;;13.62;62.52;102569.78;4997133;27;47340;-75
2022/03/22 06:50:11;;;;;;;;;25.00;24.50;;;;;13.75;62.76;102597.44;4996285;27;45561;-80
2022/03/22 06:52:38;;;;;;;;;24.75;22.50;;;;;13.77;62.46;102603.66;4993120;28;45912;-77
2022/03/22 06:55:05;;;;;;;;;22.00;22.00;;;;;13.77;62.58;102614.06;4993532;27;45561;-77
2022/03/22 06:57:31;;;;;;;;;26.25;24.75;;;;;13.74;62.52;102602.56;4975515;28;45533;-77
2022/03/22 07:00:00;;;;;;;;;32.00;27.25;;;;;13.77;62.74;102603.66;4994018;27;46268;-77
2022/03/22 07:02:26;;;;;;;;;31.50;27.00;;;;;13.85;62.30;102606.72;4995227;28;45352;-79
2022/03/22 07:04:55;;;;;;;;;28.50;27.50;;;;;13.87;61.38;102602.50;4995466;28;45448;-87
2022/03/22 07:07:20;;;;;;;;;31.75;28.50;;;;;13.91;61.25;102607.06;4994505;27;45242;-81
2022/03/22 07:09:46;;;;;;;;;26.75;23.25;;;;;13.93;61.04;102605.47;4994147;27;45461;-78
2022/03/22 07:12:13;;;;;;;;;29.00;25.25;;;;;13.91;61.40;102619.22;4993005;28;45548;-78
2022/03/22 07:14:41;;;;;;;;;32.75;26.25;;;;;13.85;61.43;102605.81;4994019;28;45501;-83
2022/03/22 07:17:11;;;;;;;;;27.75;25.75;;;;;13.81;60.97;102590.81;4982384;27;45562;-80
2022/03/22 07:19:37;;;;;;;;;32.50;27.75;;;;;13.86;60.54;102613.72;4987144;28;45593;-76
2022/03/22 07:22:06;;;;;;;;;30.00;27.50;;;;;13.78;60.38;102609.75;5007789;27;45328;-77
2022/03/22 07:24:32;;;;;;;;;24.50;24.50;;;;;13.68;60.57;102613.50;5097422;27;45355;-76
2022/03/22 07:26:57;;;;;;;;;35.75;26.50;;;;;13.66;60.87;102616.81;5002712;28;45363;-78
2022/03/22 07:29:23;;;;;;;;;32.00;28.75;;;;;13.61;60.98;102619.13;4992687;27;45722;-77
2022/03/22 07:31:50;;;;;;;;;31.50;29.00;;;;;13.63;61.88;102625.31;5071577;27;45446;-78
2022/03/22 07:34:20;;;;;;;;;32.25;29.00;;;;;13.67;61.83;102618.59;5005840;27;45455;-78
2022/03/22 07:36:46;;;;;;;;;32.25;29.00;;;;;13.67;60.99;102623.81;4993841;27;45548;-80
2022/03/22 07:39:13;;;;;;;;;33.50;26.75;;;;;13.52;61.07;102603.84;4971897;28;47741;-81
2022/03/22 07:41:44;;;;;;;;;29.75;28.75;;;;;13.64;61.56;102628.84;4974251;28;46071;-77
2022/03/22 07:44:15;;;;;;;;;32.25;28.25;;;;;13.55;61.39;102622.25;4974117;28;45408;-76
2022/03/22 07:46:42;;;;;;;;;29.75;27.75;;;;;13.58;61.51;102619.84;4974272;28;45617;-78
2022/03/22 07:54:39;;;;;;;;;33.75;30.25;;;;;13.64;61.99;102629.72;4973801;28;45489;-77
2022/03/22 07:57:08;;;;;;;;;28.25;28.25;;;;;13.65;61.79;102622.84;4973457;28;45312;-75
2022/03/22 07:59:35;;;;;;;;;35.50;29.50;;;;;13.72;61.54;102628.47;5076512;27;45779;-78
2022/03/22 08:02:01;;;;;;;;;32.75;28.50;;;;;13.75;60.87;102631.28;5077791;27;45472;-82
2022/03/22 08:04:26;;;;;;;;;32.00;30.75;;;;;13.68;61.35;102612.59;5095180;27;45789;-74
2022/03/22 08:06:52;;;;;;;;;33.75;30.00;;;;;13.83;61.53;102633.44;5039542;27;45614;-78
2022/03/22 08:09:19;;;;;;;;;33.00;28.50;;;;;13.82;61.03;102619.53;4992707;27;45573;-73
2022/03/22 08:11:45;;;;;;;;;36.75;31.50;;;;;13.96;60.79;102630.78;5037953;27;46723;-78
2022/03/22 08:14:11;;;;;;;;;22.75;22.00;;;;;14.00;60.63;102638.00;5077858;27;45361;-72
2022/03/22 08:16:38;;;;;;;;;29.50;28.50;;;;;14.04;60.74;102636.47;4992685;27;45636;-72
2022/03/22 08:19:06;;;;;;;;;37.75;31.00;;;;;14.07;60.45;102637.53;4970898;28;46605;-77
2022/03/22 08:21:33;;;;;;;;;32.25;28.25;;;;;14.18;59.99;102643.41;4998297;27;45453;-73
2022/03/22 08:23:59;;;;;;;;;32.75;30.00;;;;;14.22;59.97;102642.75;5003215;27;45449;-71
2022/03/22 08:26:26;;;;;;;;;34.75;30.75;;;;;14.29;59.54;102638.81;4976490;28;45574;-73
2022/03/22 08:28:52;;;;;;;;;33.75;29.00;;;;;14.36;58.39;102643.56;4993618;27;45285;-72
2022/03/22 08:31:18;;;;;;;;;33.00;28.00;;;;;14.37;58.64;102631.47;4994777;27;45474;-72
2022/03/22 08:33:45;;;;;;;;;27.25;27.25;;;;;14.46;57.99;102641.53;5009385;28;45609;-73
2022/03/22 08:36:10;;;;;;;;;31.50;27.75;;;;;14.48;57.47;102626.84;4978386;28;45401;-72
2022/03/22 08:38:36;;;;;;;;;38.00;32.00;;;;;14.59;57.97;102638.78;4988091;27;45997;-72
2022/03/22 08:41:02;;;;;;;;;33.50;31.50;;;;;14.66;56.91;102627.94;4975389;28;45474;-72
2022/03/22 08:43:28;;;;;;;;;30.00;27.50;;;;;14.70;56.89;102623.81;4975346;28;45515;-72
2022/03/22 08:45:54;;;;;;;;;33.50;30.00;;;;;14.74;55.73;102630.09;5013611;27;45497;-71
2022/03/22 08:48:20;;;;;;;;;28.00;27.25;;;;;14.71;56.69;102609.97;4974154;28;48173;-72
2022/03/22 08:50:49;;;;;;;;;31.75;29.50;;;;;14.90;55.76;102635.38;4991289;28;45896;-73
2022/03/22 08:53:17;;;;;;;;;35.75;30.25;;;;;14.91;54.95;102629.34;4992098;28;45178;-72
2022/03/22 08:55:47;;;;;;;;;31.75;29.50;;;;;14.96;55.52;102627.91;4992565;28;45592;-72
2022/03/22 08:58:15;;;;;;;;;30.00;28.75;;;;;14.99;52.67;102615.03;4973878;28;46233;-74
2022/03/22 09:00:41;;;;;;;;;25.25;22.75;;;;;15.02;45.66;102619.53;4976593;28;45657;-72
2022/03/22 09:03:11;;;;;;;;;26.75;24.25;;;;;14.96;41.58;102617.47;5003091;27;45388;-79
2022/03/22 09:08:21;;;;;;;;;27.75;23.25;;;;;14.81;40.35;102621.81;4996166;27;45782;-74
2022/03/22 09:10:49;;;;;;;;;28.25;26.00;;;;;14.72;40.59;102613.47;4995789;27;45505;-77
2022/03/22 09:13:16;;;;;;;;;19.00;18.00;;;;;14.72;41.25;102622.22;4996349;27;45388;-78
2022/03/22 09:15:43;;;;;;;;;23.50;19.75;;;;;14.79;40.38;102636.50;5013200;27;45725;-73
2022/03/22 09:18:15;;;;;;;;;28.50;22.75;;;;;14.81;40.04;102635.75;4983619;28;45752;-73
2022/03/22 09:20:42;;;;;;;;;22.50;20.75;;;;;14.80;39.93;102617.41;5038574;27;45379;-76
2022/03/22 09:23:09;;;;;;;;;24.75;22.75;;;;;14.85;40.68;102614.25;4999699;27;45381;-75
2022/03/22 09:25:35;;;;;;;;;23.50;21.50;;;;;14.97;39.08;102632.31;5000356;27;45619;-76
2022/03/22 09:28:04;;;;;;;;;24.75;20.00;;;;;15.03;37.64;102629.16;5041932;27;45997;-75
2022/03/22 09:30:30;;;;;;;;;19.50;19.50;;;;;15.09;36.63;102639.91;5038091;27;45553;-75
2022/03/22 09:32:57;;;;;;;;;22.00;20.25;;;;;15.07;35.21;102620.66;5005100;28;45481;-78
2022/03/22 09:35:24;;;;;;;;;19.50;18.50;;;;;15.22;32.62;102630.16;5005353;27;45483;-76
2022/03/22 09:37:50;;;;;;;;;17.25;15.00;;;;;15.23;33.35;102645.00;5024110;27;45467;-76
2022/03/22 09:40:18;;;;;;;;;20.25;17.25;;;;;15.20;31.90;102643.13;5023023;27;45510;-78
2022/03/22 09:42:45;;;;;;;;;16.25;15.25;;;;;15.26;31.58;102643.44;5038183;27;45417;-78
2022/03/22 09:45:17;;;;;;;;;19.25;17.00;;;;;15.26;31.37;102633.00;5047141;27;45476;-79
2022/03/22 09:47:47;;;;;;;;;17.50;16.25;;;;;15.36;31.46;102636.13;5018065;27;45587;-72
2022/03/22 09:50:15;;;;;;;;;18.50;16.25;;;;;15.38;30.83;102638.03;5019171;27;45385;-73
2022/03/22 09:52:42;;;;;;;;;17.50;17.50;;;;;15.36;30.95;102629.22;5052084;27;45260;-73
2022/03/22 09:55:10;;;;;;;;;17.00;17.00;;;;;15.36;30.44;102629.22;5081156;27;45596;-75
2022/03/22 09:57:36;;;;;;;;;20.25;17.75;;;;;15.29;30.89;102633.19;5032916;27;47954;-80
2022/03/22 10:00:04;;;;;;;;;16.75;16.25;;;;;15.25;31.14;102615.56;4979508;28;45562;-73
2022/03/22 10:02:35;;;;;;;;;19.00;18.00;;;;;15.27;30.04;102626.09;4989291;28;45475;-73
2022/03/22 10:05:01;;;;;;;;;17.25;15.50;;;;;15.15;29.73;102598.53;4994355;28;45430;-74
2022/03/22 10:07:30;;;;;;;;;21.50;18.00;;;;;15.29;29.56;102627.06;4995322;28;45582;-76
2022/03/22 10:10:02;;;;;;;;;19.50;17.00;;;;;15.28;29.63;102622.69;5009242;27;45523;-72
2022/03/22 10:12:38;;;;;;;;;18.50;15.75;;;;;15.33;29.89;102637.75;4998675;27;45358;-72
2022/03/22 10:15:12;;;;;;;;;16.25;15.75;;;;;15.35;29.37;102632.63;4996281;27;46015;-73
2022/03/22 10:17:39;;;;;;;;;16.50;16.50;;;;;15.36;30.49;102633.50;5071848;27;48198;-74
2022/03/22 10:20:07;;;;;;;;;15.25;14.25;;;;;15.33;30.30;102609.03;5041391;27;45773;-77
2022/03/22 10:22:34;;;;;;;;;17.25;14.75;;;;;15.49;29.89;102633.38;5047536;27;45394;-74
2022/03/22 10:25:03;;;;;;;;;19.00;17.00;;;;;15.50;30.07;102616.91;5026230;27;45577;-75
2022/03/22 10:27:31;;;;;;;;;21.25;21.25;;;;;15.55;30.44;102617.13;5086352;27;45525;-73
2022/03/22 10:29:59;;;;;;;;;24.50;23.00;;;;;15.52;30.40;102622.19;5069267;27;45582;-77
2022/03/22 10:32:39;;;;;;;;;24.00;20.25;;;;;15.60;30.68;102619.19;5010214;27;45478;-73
2022/03/22 10:35:28;;;;;;;;;20.00;18.75;;;;;15.71;31.29;102606.69;5071056;27;45437;-75
2022/03/22 10:37:57;;;;;;;;;22.50;19.75;;;;;15.81;31.23;102618.50;4992250;28;46296;-72
2022/03/22 10:40:40;;;;;;;;;15.75;15.75;;;;;15.90;30.95;102611.19;5041007;27;45504;-73
2022/03/22 10:43:12;;;;;;;;;17.00;17.00;;;;;15.93;30.83;102603.53;5019559;27;45240;-75
2022/03/22 10:45:42;;;;;;;;;20.25;19.00;;;;;15.97;30.78;102606.31;5047097;27;45604;-73
2022/03/22 10:48:08;;;;;;;;;24.00;21.00;;;;;15.98;31.34;102587.19;5035960;27;46039;-74
2022/03/22 10:50:38;;;;;;;;;22.25;17.75;;;;;16.09;30.82;102597.38;4994768;27;45417;-76
2022/03/22 10:53:05;;;;;;;;;19.00;19.00;;;;;16.16;29.90;102601.19;5048857;27;45250;-74
2022/03/22 10:55:32;;;;;;;;;19.50;19.00;;;;;16.20;29.96;102608.34;5063669;27;45466;-76
2022/03/22 10:58:00;;;;;;;;;17.50;16.50;;;;;16.22;30.20;102606.72;4981881;28;47584;-73
2022/03/22 11:00:26;;;;;;;;;19.50;18.50;;;;;16.27;30.93;102598.22;5004763;27;45752;-72
2022/03/22 11:02:55;;;;;;;;;23.50;22.75;;;;;16.33;30.77;102603.72;5004541;27;45421;-77
2022/03/22 11:05:22;;;;;;;;;23.50;23.25;;;;;16.38;30.59;102605.75;5003335;27;45403;-73
2022/03/22 11:07:49;;;;;;;;;19.25;17.75;;;;;16.44;30.62;102599.94;5014425;27;46181;-73
2022/03/22 11:10:29;;;;;;;;;19.50;19.50;;;;;16.52;29.64;102595.97;5060434;27;45343;-74
2022/03/22 11:12:58;;;;;;;;;22.50;17.75;;;;;16.47;29.52;102576.56;5063628;27;45476;-72
2022/03/22 11:15:27;;;;;;;;;21.00;19.75;;;;;16.49;29.05;102576.63;5017107;27;45323;-73
2022/03/22 11:17:55;;;;;;;;;17.25;17.00;;;;;16.60;29.78;102585.00;5096532;27;45390;-75
2022/03/22 11:20:23;;;;;;;;;20.00;18.25;;;;;16.61;30.85;102579.84;5057623;27;46022;-78
2022/03/22 11:22:54;;;;;;;;;19.25;17.75;;;;;16.65;30.09;102571.34;5058550;27;45413;-73
2022/03/22 11:25:30;;;;;;;;;21.00;20.00;;;;;16.77;29.83;102585.84;5087532;27;45497;-74
2022/03/22 11:28:05;;;;;;;;;20.50;19.25;;;;;16.79;29.70;102584.19;5017709;27;45460;-80
2022/03/22 11:30:31;;;;;;;;;21.75;18.25;;;;;16.81;29.90;102572.97;4992882;28;45407;-77
2022/03/22 11:35:57;;;;;;;;;20.25;18.25;;;;;16.92;29.98;102572.56;5010762;27;45411;-74
2022/03/22 11:39:00;;;;;;;;;20.00;18.25;;;;;16.98;29.44;102565.03;5023612;27;45740;-75
2022/03/22 11:44:36;;;;;;;;;19.75;19.75;;;;;17.08;29.11;102561.13;5041283;27;45292;-74